Time;durP1;ratioP1;P1;durP2;ratioP2;P2;SDS_P1;SDS_P2;PMS_P1;PMS_P2;Temp;Humidity;BMP_temperature;BMP_pressure;BME280_temperature;BME280_humidity;BME280_pressure;Samples;Min_cycle;Max_cycle;Signal;HPM_P1;HPM_P2
2023/05/05 14:53:52;;;;;;;4.10;2.80;;;23.20;1.00;;;;;;4994078;28;20502;-40
2023/05/05 14:56:20;;;;;;;7.33;2.73;;;23.20;1.00;;;;;;4994954;28;20812;-42
2023/05/05 14:58:46;;;;;;;3.00;2.53;;;23.00;1.00;;;;;;4995914;28;20180;-44
2023/05/05 15:01:11;;;;;;;2.93;2.47;;;22.90;1.00;;;;;;4998079;28;20414;-44
2023/05/05 15:03:37;;;;;;;4.63;2.70;;;22.80;1.00;;;;;;4998914;28;20180;-44
2023/05/05 15:06:04;;;;;;;4.40;2.60;;;22.70;1.00;;;;;;4995573;28;20273;-45
2023/05/05 15:08:30;;;;;;;2.93;2.63;;;22.60;1.00;;;;;;4980335;28;20184;-42
2023/05/05 15:10:55;;;;;;;3.33;3.03;;;22.50;1.00;;;;;;4995482;28;20489;-43
2023/05/05 15:13:21;;;;;;;5.40;2.67;;;22.40;1.00;;;;;;4997552;28;20554;-54
2023/05/05 15:15:47;;;;;;;4.53;3.00;;;22.30;1.00;;;;;;4998183;28;20263;-42
2023/05/05 15:18:13;;;;;;;2.83;2.57;;;22.20;1.00;;;;;;4993735;28;20176;-40
2023/05/05 15:20:39;;;;;;;2.93;2.60;;;22.10;1.00;;;;;;4995154;28;20481;-43
2023/05/05 15:23:04;;;;;;;3.63;2.50;;;21.90;1.00;;;;;;4997766;28;20377;-41
2023/05/05 15:25:31;;;;;;;2.93;2.63;;;21.80;1.00;;;;;;4980632;28;20221;-43
2023/05/05 15:27:57;;;;;;;3.90;2.87;;;21.70;1.00;;;;;;4995721;28;20427;-41
2023/05/05 15:30:23;;;;;;;3.17;2.87;;;21.50;1.00;;;;;;4997487;28;20238;-41
2023/05/05 15:32:50;;;;;;;5.03;3.30;;;21.40;1.00;;;;;;4999425;28;20492;-41
2023/05/05 15:35:15;;;;;;;3.87;3.23;;;21.30;1.00;;;;;;4998318;28;20427;-41
2023/05/05 15:37:41;;;;;;;6.30;3.70;;;21.10;1.00;;;;;;4997095;28;20437;-41
2023/05/05 15:40:08;;;;;;;5.03;3.57;;;20.90;1.00;;;;;;4996735;28;20505;-41
2023/05/05 15:42:33;;;;;;;4.97;3.90;;;20.70;1.00;;;;;;4996221;28;20187;-41
2023/05/05 15:45:00;;;;;;;5.27;4.27;;;20.60;1.00;;;;;;4978578;28;20465;-41
2023/05/05 15:47:25;;;;;;;6.10;3.80;;;20.40;99.90;;;;;;4993774;28;20188;-41
2023/05/05 15:49:51;;;;;;;8.80;4.70;;;20.20;1.00;;;;;;4992384;28;20758;-42
2023/05/05 15:52:17;;;;;;;4.77;3.80;;;20.00;99.90;;;;;;4993011;28;20224;-41
2023/05/05 15:54:43;;;;;;;3.70;3.40;;;19.90;1.00;;;;;;4991942;28;20473;-41
2023/05/05 15:57:08;;;;;;;6.17;4.20;;;19.80;38.80;;;;;;4991721;28;20676;-40
2023/05/05 15:59:34;;;;;;;6.80;4.30;;;19.70;1.00;;;;;;4994084;28;20323;-41
2023/05/05 16:02:00;;;;;;;5.30;4.50;;;19.60;1.00;;;;;;4977124;28;20565;-42
2023/05/05 16:04:25;;;;;;;5.90;4.50;;;19.50;1.00;;;;;;4994585;28;20176;-42
2023/05/05 16:06:52;;;;;;;6.20;4.73;;;19.40;99.90;;;;;;4994062;28;20211;-44
2023/05/05 16:09:17;;;;;;;6.53;4.80;;;19.30;99.90;;;;;;4993061;28;20202;-41
2023/05/05 16:11:43;;;;;;;10.20;4.17;;;19.00;99.90;;;;;;4992864;28;20422;-42
2023/05/05 16:14:09;;;;;;;11.50;5.53;;;18.80;95.90;;;;;;4992305;28;20172;-41
2023/05/05 16:16:35;;;;;;;7.60;5.50;;;18.70;99.90;;;;;;4993783;28;20430;-41
2023/05/05 16:19:00;;;;;;;7.90;5.10;;;18.60;18.00;;;;;;4992935;28;20460;-42
2023/05/05 16:21:26;;;;;;;5.90;5.40;;;18.40;99.90;;;;;;4996058;28;20195;-41
2023/05/05 16:23:52;;;;;;;7.37;5.10;;;18.30;1.00;;;;;;4994898;28;20259;-40
2023/05/05 16:26:18;;;;;;;9.20;6.03;;;18.20;1.00;;;;;;4995225;28;20204;-40
2023/05/05 16:28:44;;;;;;;8.73;6.10;;;18.10;1.00;;;;;;4994542;28;20176;-40
2023/05/05 16:31:09;;;;;;;7.03;5.03;;;18.00;11.50;;;;;;4994878;28;20427;-41
2023/05/05 16:33:39;;;;;;;6.10;5.47;;;17.90;99.90;;;;;;4993497;28;20263;-44
2023/05/05 16:36:10;;;;;;;6.73;5.90;;;17.80;99.90;;;;;;4994214;28;20175;-41
2023/05/05 16:38:36;;;;;;;11.10;6.60;;;17.70;99.90;;;;;;4994150;28;20443;-40
2023/05/05 16:41:01;;;;;;;11.63;7.30;;;17.60;1.00;;;;;;4993105;28;20407;-40
2023/05/05 16:43:27;;;;;;;7.30;5.73;;;17.40;1.00;;;;;;4993222;28;20909;-40
2023/05/05 16:45:53;;;;;;;9.57;6.73;;;17.30;1.00;;;;;;4993903;28;20206;-39
2023/05/05 16:48:18;;;;;;;7.87;6.43;;;17.00;54.40;;;;;;4976642;28;20214;-40
2023/05/05 16:50:44;;;;;;;10.20;6.17;;;17.00;99.90;;;;;;4977021;28;20213;-40
2023/05/05 16:53:10;;;;;;;6.63;5.93;;;17.00;99.90;;;;;;4994300;28;20534;-40
2023/05/05 16:55:36;;;;;;;7.80;5.60;;;17.00;99.90;;;;;;4995100;28;20184;-43
2023/05/05 16:58:02;;;;;;;7.60;6.20;;;17.10;99.90;;;;;;4978236;28;20211;-42
2023/05/05 17:00:28;;;;;;;7.33;5.80;;;17.30;99.90;;;;;;4995176;28;20504;-42
2023/05/05 17:02:55;;;;;;;6.10;5.50;;;17.50;99.90;;;;;;4994152;28;20473;-42
2023/05/05 17:05:20;;;;;;;6.43;5.00;;;17.70;81.20;;;;;;4993877;28;20462;-42
2023/05/05 17:07:49;;;;;;;6.20;4.70;;;18.00;5.70;;;;;;4995426;28;20442;-41
2023/05/05 17:10:15;;;;;;;6.83;5.20;;;18.30;1.00;;;;;;4994945;28;20203;-40
2023/05/05 17:12:41;;;;;;;4.70;4.30;;;18.40;1.00;;;;;;4994955;28;20950;-42
2023/05/05 17:15:07;;;;;;;6.57;5.00;;;18.40;37.30;;;;;;4994749;28;20423;-42
2023/05/05 17:17:33;;;;;;;7.07;4.17;;;18.40;54.30;;;;;;4977455;28;20188;-40
2023/05/05 17:20:01;;;;;;;5.13;4.63;;;18.40;21.50;;;;;;4976844;28;20418;-43
2023/05/05 17:22:27;;;;;;;4.87;4.20;;;18.40;99.90;;;;;;4994467;28;20431;-41
2023/05/05 17:24:53;;;;;;;8.43;4.40;;;18.40;1.00;;;;;;4996187;28;20426;-41
2023/05/05 17:27:19;;;;;;;4.10;3.70;;;18.40;1.00;;;;;;4996287;28;20534;-41
2023/05/05 17:29:44;;;;;;;6.33;5.07;;;18.30;99.90;;;;;;4994901;28;20241;-40
2023/05/05 17:32:10;;;;;;;5.90;4.43;;;18.20;1.00;;;;;;4994658;28;20180;-41
2023/05/05 17:34:36;;;;;;;4.20;3.80;;;18.10;1.00;;;;;;4994561;28;20229;-42
2023/05/05 17:37:02;;;;;;;5.20;4.10;;;18.00;1.00;;;;;;4993947;28;20179;-40
2023/05/05 17:39:28;;;;;;;4.90;4.07;;;17.90;31.40;;;;;;4994105;28;20576;-40
2023/05/05 17:41:54;;;;;;;3.80;3.50;;;17.80;99.90;;;;;;4993130;28;20578;-41
2023/05/05 17:44:20;;;;;;;4.77;4.10;;;17.80;99.90;;;;;;4995152;28;20513;-43
2023/05/05 17:46:46;;;;;;;4.70;4.30;;;17.70;99.90;;;;;;4996243;28;20706;-41
2023/05/05 17:49:12;;;;;;;8.37;6.60;;;17.70;99.90;;;;;;4996246;28;20414;-40
2023/05/05 17:51:37;;;;;;;5.30;4.83;;;17.60;99.90;;;;;;4996551;28;20179;-41
2023/05/05 17:54:03;;;;;;;4.30;3.67;;;17.60;99.90;;;;;;4996557;28;20281;-41
2023/05/05 17:56:29;;;;;;;3.80;3.47;;;17.60;1.00;;;;;;4994499;28;20461;-41
2023/05/05 17:58:55;;;;;;;5.30;4.40;;;17.50;1.00;;;;;;4976589;28;20443;-41
2023/05/05 18:01:21;;;;;;;5.53;4.60;;;17.40;1.00;;;;;;4994052;28;20643;-41
2023/05/05 18:03:47;;;;;;;3.87;3.47;;;17.40;1.00;;;;;;4995626;28;20664;-41
2023/05/05 18:06:13;;;;;;;5.00;4.50;;;17.30;1.00;;;;;;4996893;28;20477;-44
2023/05/05 18:08:39;;;;;;;4.60;4.20;;;17.30;1.00;;;;;;4995301;28;20415;-40
2023/05/05 18:11:05;;;;;;;4.50;4.10;;;17.30;1.00;;;;;;4993310;28;20183;-40
2023/05/05 18:13:30;;;;;;;6.37;4.07;;;17.20;1.00;;;;;;4993870;28;20702;-41
2023/05/05 18:15:56;;;;;;;4.53;4.03;;;17.20;1.00;;;;;;4994432;28;20510;-40
2023/05/05 18:18:22;;;;;;;3.87;3.53;;;17.10;1.00;;;;;;4994357;28;20246;-40
2023/05/05 18:20:47;;;;;;;5.20;4.43;;;17.10;1.00;;;;;;4993903;28;20266;-41
2023/05/05 18:23:13;;;;;;;4.20;3.73;;;17.00;1.00;;;;;;4993583;28;20283;-40
2023/05/05 18:25:40;;;;;;;4.23;3.83;;;16.90;1.00;;;;;;4979572;28;20199;-42
2023/05/05 18:28:06;;;;;;;5.80;3.80;;;16.80;1.10;;;;;;4999629;28;20180;-43
2023/05/05 18:30:32;;;;;;;4.33;3.93;;;16.70;34.50;;;;;;4999424;28;20411;-40
2023/05/05 18:32:58;;;;;;;4.70;3.93;;;16.60;99.90;;;;;;4999799;28;20253;-40
2023/05/05 18:35:23;;;;;;;4.57;4.13;;;16.50;99.90;;;;;;4999104;28;20423;-41
2023/05/05 18:37:49;;;;;;;5.23;4.73;;;16.40;99.90;;;;;;4995674;28;20184;-40
2023/05/05 18:40:15;;;;;;;5.53;3.97;;;16.30;99.90;;;;;;4997187;28;20302;-42
2023/05/05 18:42:42;;;;;;;5.73;4.00;;;16.20;99.90;;;;;;4997064;28;20176;-40
2023/05/05 18:45:09;;;;;;;5.23;4.73;;;16.10;99.90;;;;;;4978529;28;20259;-49
2023/05/05 18:47:36;;;;;;;4.97;4.57;;;16.00;99.90;;;;;;4995472;28;20876;-40
2023/05/05 18:50:02;;;;;;;4.53;4.13;;;16.00;99.90;;;;;;4995625;28;20415;-41
2023/05/05 18:52:28;;;;;;;4.83;4.43;;;15.90;99.90;;;;;;4996150;28;20855;-40
2023/05/05 18:54:53;;;;;;;4.83;4.33;;;15.80;99.90;;;;;;4997482;28;20499;-43
2023/05/05 18:57:19;;;;;;;5.63;5.03;;;15.80;99.90;;;;;;4996624;28;20267;-42
2023/05/05 18:59:45;;;;;;;4.23;3.90;;;15.70;99.90;;;;;;4996535;28;20541;-40
2023/05/05 19:02:11;;;;;;;5.00;4.50;;;15.70;99.90;;;;;;4997566;28;20357;-40
2023/05/05 19:04:36;;;;;;;5.00;4.33;;;15.60;99.90;;;;;;4997597;28;20234;-51
2023/05/05 19:07:03;;;;;;;5.87;5.27;;;15.60;1.00;;;;;;4996982;28;20207;-42
2023/05/05 19:09:29;;;;;;;4.53;4.23;;;15.60;1.00;;;;;;4996068;28;20381;-45
2023/05/05 19:11:55;;;;;;;4.40;4.10;;;15.50;1.00;;;;;;4978749;28;20584;-41
2023/05/05 19:14:21;;;;;;;7.30;4.27;;;15.50;1.00;;;;;;4997331;28;20433;-43
2023/05/05 19:16:47;;;;;;;4.93;4.43;;;15.50;1.00;;;;;;4997387;28;20434;-43
2023/05/05 19:19:13;;;;;;;4.70;4.23;;;15.50;1.00;;;;;;4998756;28;20430;-43
2023/05/05 19:21:39;;;;;;;4.87;4.47;;;15.50;1.00;;;;;;4996615;28;20437;-41
2023/05/05 19:24:07;;;;;;;4.77;4.30;;;15.50;1.00;;;;;;4962536;28;20261;-40
2023/05/05 19:26:32;;;;;;;4.50;4.10;;;15.50;1.00;;;;;;4997249;28;20222;-41
2023/05/05 19:28:58;;;;;;;5.20;4.30;;;15.50;1.00;;;;;;4998289;28;20414;-40
2023/05/05 19:31:26;;;;;;;4.83;4.30;;;15.50;1.00;;;;;;4999916;28;20199;-42
2023/05/05 19:33:57;;;;;;;4.87;4.13;;;15.50;1.00;;;;;;4997668;28;20183;-41
2023/05/05 19:36:23;;;;;;;4.50;4.10;;;15.50;1.00;;;;;;4997652;28;20423;-41
2023/05/05 19:38:49;;;;;;;4.03;3.63;;;15.50;1.00;;;;;;4999196;28;20430;-43
2023/05/05 19:41:16;;;;;;;4.83;4.03;;;15.50;1.00;;;;;;4982328;28;20883;-40
2023/05/05 19:43:45;;;;;;;5.23;4.10;;;15.50;1.00;;;;;;4998667;28;20706;-42
2023/05/05 19:46:11;;;;;;;4.87;4.27;;;15.50;1.00;;;;;;4997422;28;20477;-40
2023/05/05 19:48:37;;;;;;;4.63;4.20;;;15.40;99.90;;;;;;4997640;28;20670;-39
2023/05/05 19:51:03;;;;;;;4.77;4.30;;;15.40;99.90;;;;;;4995556;28;20446;-40
2023/05/05 19:53:28;;;;;;;5.13;4.60;;;15.40;99.90;;;;;;4991009;28;20274;-39
2023/05/05 19:55:54;;;;;;;4.93;4.37;;;15.40;99.90;;;;;;4993772;28;20415;-38
2023/05/05 19:58:20;;;;;;;6.53;4.70;;;15.40;99.90;;;;;;4993584;28;20180;-39
2023/05/05 20:00:46;;;;;;;5.30;4.80;;;15.30;1.00;;;;;;4994413;28;20389;-38
2023/05/05 20:03:11;;;;;;;4.70;4.30;;;15.30;99.90;;;;;;4996507;28;20553;-40
2023/05/05 20:05:37;;;;;;;6.40;5.30;;;15.30;1.00;;;;;;4995991;28;20208;-41
2023/05/05 20:08:03;;;;;;;5.53;5.00;;;15.30;1.00;;;;;;4997262;28;20180;-42
2023/05/05 20:10:29;;;;;;;6.50;5.90;;;15.30;1.00;;;;;;4997180;28;20812;-42
2023/05/05 20:12:54;;;;;;;5.47;4.97;;;15.30;1.00;;;;;;4995787;28;20698;-38
2023/05/05 20:15:20;;;;;;;5.67;5.17;;;15.20;1.00;;;;;;4998310;28;20172;-39
2023/05/05 20:17:46;;;;;;;6.10;5.03;;;15.20;1.00;;;;;;4998243;28;20188;-41
2023/05/05 20:20:16;;;;;;;6.53;5.97;;;15.20;99.90;;;;;;4997939;28;20418;-39
2023/05/05 20:22:42;;;;;;;8.53;6.07;;;15.20;99.90;;;;;;4998326;28;20438;-41
2023/05/05 20:25:08;;;;;;;5.77;5.17;;;15.20;99.90;;;;;;4997971;28;20471;-41
2023/05/05 20:27:34;;;;;;;6.77;6.10;;;15.20;99.90;;;;;;4996851;28;20496;-39
2023/05/05 20:30:00;;;;;;;7.10;5.60;;;15.10;99.90;;;;;;4997144;28;20180;-41
2023/05/05 20:32:26;;;;;;;5.70;5.17;;;15.10;1.00;;;;;;4994790;28;20434;-42
2023/05/05 20:34:51;;;;;;;7.03;6.33;;;15.10;1.00;;;;;;4995416;28;20426;-41
2023/05/05 20:37:17;;;;;;;6.63;6.00;;;15.00;1.00;;;;;;4997375;28;20179;-41
2023/05/05 20:39:43;;;;;;;7.70;7.00;;;15.00;1.00;;;;;;4996939;28;20172;-42
2023/05/05 20:42:09;;;;;;;8.23;7.27;;;15.00;1.00;;;;;;4996762;28;20294;-43
2023/05/05 20:44:35;;;;;;;7.63;6.77;;;15.00;1.00;;;;;;4963541;28;20167;-40
2023/05/05 20:47:03;;;;;;;6.40;5.73;;;15.00;1.00;;;;;;4995939;28;20490;-44
2023/05/05 20:49:29;;;;;;;7.70;6.90;;;14.90;1.00;;;;;;4963138;28;20701;-40
2023/05/05 20:51:55;;;;;;;7.17;6.43;;;14.90;1.00;;;;;;4995313;28;20550;-41
2023/05/05 20:54:21;;;;;;;7.37;6.67;;;14.90;1.00;;;;;;4978764;28;20430;-42
2023/05/05 20:56:46;;;;;;;7.33;6.63;;;14.90;1.00;;;;;;4977854;28;20446;-42
2023/05/05 20:59:12;;;;;;;7.97;6.80;;;14.90;1.00;;;;;;4994868;28;20172;-39
2023/05/05 21:01:38;;;;;;;6.77;6.17;;;14.90;1.00;;;;;;4996075;28;20183;-42
2023/05/05 21:04:04;;;;;;;10.93;7.67;;;14.90;1.00;;;;;;4995841;28;20186;-42
2023/05/05 21:06:31;;;;;;;7.10;5.97;;;14.90;1.00;;;;;;4995598;28;20513;-42
2023/05/05 21:08:56;;;;;;;6.63;6.03;;;14.90;1.00;;;;;;4979043;28;20271;-41
2023/05/05 21:11:22;;;;;;;7.37;6.57;;;14.90;1.00;;;;;;4997204;28;20908;-41
2023/05/05 21:13:48;;;;;;;7.57;6.77;;;14.90;1.00;;;;;;4997431;28;20690;-42
2023/05/05 21:16:13;;;;;;;7.63;6.83;;;14.90;1.00;;;;;;4997327;28;20168;-43
2023/05/05 21:18:39;;;;;;;7.23;6.53;;;14.90;1.00;;;;;;4996315;28;20207;-41
2023/05/05 21:21:05;;;;;;;6.67;5.93;;;14.80;1.00;;;;;;4996190;28;20172;-41
2023/05/05 21:23:30;;;;;;;6.20;5.60;;;14.80;1.00;;;;;;4979354;28;20190;-39
2023/05/05 21:25:56;;;;;;;6.50;5.90;;;14.80;1.00;;;;;;4996720;28;20214;-39
2023/05/05 21:28:22;;;;;;;6.13;5.63;;;14.80;1.00;;;;;;4995920;28;20421;-41
2023/05/05 21:30:50;;;;;;;8.53;5.77;;;14.80;1.00;;;;;;4996478;28;20270;-41
2023/05/05 21:33:15;;;;;;;6.53;5.90;;;14.80;1.00;;;;;;4997998;28;20516;-39
2023/05/05 21:35:41;;;;;;;8.50;5.50;;;14.80;1.00;;;;;;4997680;28;20419;-40
2023/05/05 21:38:07;;;;;;;6.70;6.10;;;14.80;1.00;;;;;;4997051;28;20195;-42
2023/05/05 21:40:33;;;;;;;6.07;5.47;;;14.70;1.00;;;;;;4995217;28;20171;-40
2023/05/05 21:42:58;;;;;;;5.60;5.10;;;14.70;1.00;;;;;;4996574;28;20179;-41
2023/05/05 21:45:24;;;;;;;5.83;5.33;;;14.70;1.00;;;;;;4996435;28;20234;-40
2023/05/05 21:47:49;;;;;;;6.93;5.97;;;14.70;1.00;;;;;;4978579;28;20175;-42
2023/05/05 21:50:15;;;;;;;6.83;6.23;;;14.70;1.00;;;;;;4996807;28;20198;-40
2023/05/05 21:52:41;;;;;;;7.03;5.73;;;14.70;1.00;;;;;;4995835;28;20235;-40
2023/05/05 21:55:09;;;;;;;6.37;5.77;;;14.70;1.00;;;;;;4996530;28;20180;-46
2023/05/05 21:57:35;;;;;;;6.83;6.20;;;14.80;1.00;;;;;;4996653;28;20187;-42
2023/05/05 22:00:01;;;;;;;7.23;6.53;;;14.80;1.00;;;;;;4994753;28;20404;-41
2023/05/05 22:02:26;;;;;;;7.30;6.70;;;14.80;1.00;;;;;;4992195;28;20200;-42
2023/05/05 22:04:52;;;;;;;6.93;6.13;;;14.90;1.00;;;;;;4994414;28;20462;-44
2023/05/05 22:07:18;;;;;;;7.20;6.40;;;14.90;1.00;;;;;;4995033;28;20191;-42
2023/05/05 22:09:44;;;;;;;6.57;5.87;;;14.90;1.00;;;;;;4995790;28;20419;-41
2023/05/05 22:12:10;;;;;;;6.40;5.90;;;14.90;1.00;;;;;;4995837;28;20206;-40
2023/05/05 22:14:36;;;;;;;5.83;5.30;;;15.00;99.90;;;;;;4995011;28;20435;-43
2023/05/05 22:17:02;;;;;;;6.87;6.20;;;14.90;1.00;;;;;;4995342;28;20735;-40
2023/05/05 22:19:28;;;;;;;6.57;6.03;;;14.90;1.00;;;;;;4995307;28;20187;-40
2023/05/05 22:21:56;;;;;;;7.30;6.60;;;14.90;1.00;;;;;;4996545;28;20467;-41
2023/05/05 22:24:21;;;;;;;6.73;6.13;;;14.90;1.00;;;;;;4996553;28;20847;-41
2023/05/05 22:26:47;;;;;;;6.80;5.70;;;14.80;1.00;;;;;;4997549;28;20463;-40
2023/05/05 22:29:13;;;;;;;6.67;5.30;;;14.80;1.00;;;;;;4996403;28;20418;-40
2023/05/05 22:31:39;;;;;;;7.27;4.80;;;14.80;1.00;;;;;;4996764;28;20434;-42
2023/05/05 22:34:05;;;;;;;4.93;4.00;;;14.90;99.90;;;;;;4995754;28;20609;-41
2023/05/05 22:36:31;;;;;;;5.57;4.80;;;14.80;99.90;;;;;;4995490;28;20426;-41
2023/05/05 22:38:57;;;;;;;3.90;3.60;;;14.70;99.90;;;;;;4996209;28;20172;-41
2023/05/05 22:41:23;;;;;;;4.43;3.83;;;14.70;99.90;;;;;;4996545;28;20172;-41
2023/05/05 22:43:49;;;;;;;4.40;4.00;;;14.60;99.90;;;;;;4996237;28;20430;-42
2023/05/05 22:46:15;;;;;;;4.77;4.23;;;14.60;99.90;;;;;;4978900;28;20483;-41
2023/05/05 22:48:41;;;;;;;5.77;5.00;;;14.60;99.90;;;;;;4996172;28;20419;-39
2023/05/05 22:51:07;;;;;;;7.10;6.50;;;14.60;99.90;;;;;;4995701;28;20855;-40
2023/05/05 22:53:33;;;;;;;6.03;5.43;;;14.60;1.00;;;;;;4995850;28;20273;-39
2023/05/05 22:55:58;;;;;;;5.23;4.70;;;14.60;1.00;;;;;;4997143;28;20262;-41
2023/05/05 22:58:24;;;;;;;6.57;5.43;;;14.60;1.00;;;;;;4997069;28;20195;-39
2023/05/05 23:00:50;;;;;;;4.70;4.30;;;14.60;1.00;;;;;;4997176;28;20194;-41
2023/05/05 23:03:16;;;;;;;5.43;4.30;;;14.60;1.00;;;;;;4980238;28;20188;-40
2023/05/05 23:05:43;;;;;;;5.40;4.90;;;14.60;1.00;;;;;;4997326;28;20466;-40
2023/05/05 23:08:09;;;;;;;5.53;4.87;;;14.60;99.90;;;;;;4996129;28;20183;-40
2023/05/05 23:10:34;;;;;;;4.57;4.00;;;14.60;99.90;;;;;;5000090;28;20411;-40
2023/05/05 23:13:00;;;;;;;4.93;4.43;;;14.50;1.00;;;;;;4999787;28;20619;-40
2023/05/05 23:15:26;;;;;;;4.90;4.40;;;14.50;1.00;;;;;;5000165;28;20176;-41
2023/05/05 23:17:51;;;;;;;4.83;4.03;;;14.50;1.00;;;;;;4999940;28;20195;-40
2023/05/05 23:20:17;;;;;;;3.83;3.50;;;14.40;99.90;;;;;;5001052;28;20569;-41
2023/05/05 23:22:43;;;;;;;4.67;3.67;;;14.40;99.90;;;;;;5001021;28;20521;-40
2023/05/05 23:25:09;;;;;;;4.80;3.60;;;14.30;99.90;;;;;;5000923;28;20588;-40
2023/05/05 23:27:34;;;;;;;4.37;3.90;;;14.30;99.90;;;;;;5000309;28;20198;-40
2023/05/05 23:30:00;;;;;;;6.20;4.20;;;14.30;1.00;;;;;;5000168;28;20450;-41
2023/05/05 23:32:26;;;;;;;4.53;4.13;;;14.30;1.00;;;;;;4999800;28;20180;-41
2023/05/05 23:34:52;;;;;;;4.20;3.80;;;14.30;1.00;;;;;;4999940;28;20558;-41
2023/05/05 23:37:18;;;;;;;5.40;4.30;;;14.30;1.00;;;;;;5000486;28;20184;-40
2023/05/05 23:39:44;;;;;;;4.40;4.00;;;14.20;1.00;;;;;;5000806;28;20594;-41
2023/05/05 23:42:09;;;;;;;4.20;3.90;;;14.20;1.00;;;;;;4999582;28;20194;-41
2023/05/05 23:44:35;;;;;;;4.00;3.60;;;14.10;1.00;;;;;;4998976;28;20175;-41
2023/05/05 23:47:01;;;;;;;4.20;3.83;;;14.20;1.00;;;;;;4999407;28;20306;-40
2023/05/05 23:49:26;;;;;;;4.53;4.13;;;14.10;1.00;;;;;;4999406;28;20188;-41
2023/05/05 23:51:52;;;;;;;4.60;4.00;;;14.10;1.00;;;;;;4999073;28;20226;-41
2023/05/05 23:54:18;;;;;;;4.20;3.80;;;14.00;1.00;;;;;;4999554;28;20187;-41
2023/05/05 23:56:46;;;;;;;5.07;4.33;;;14.00;1.00;;;;;;4999272;28;20191;-41
2023/05/05 23:59:12;;;;;;;4.43;4.03;;;14.00;1.00;;;;;;4999252;28;20179;-41
